createdAt,value
2022-08-07T00:00:36.289Z,56.81
2022-08-07T00:03:06.924Z,56.75
2022-08-07T00:05:34.768Z,57.45
2022-08-07T00:08:04.321Z,57.04
2022-08-07T00:10:31.629Z,57.60
2022-08-07T00:13:09.566Z,57.92
2022-08-07T00:15:50.887Z,58.27
2022-08-07T00:18:24.413Z,57.76
2022-08-07T00:20:56.831Z,58.28
2022-08-07T00:23:24.149Z,58.68
2022-08-07T00:25:51.888Z,58.54
2022-08-07T00:28:33.777Z,58.43
2022-08-07T00:31:05.959Z,58.42
2022-08-07T00:33:33.636Z,58.23
2022-08-07T00:35:59.521Z,59.23
2022-08-07T00:38:31.594Z,59.18
2022-08-07T00:40:58.603Z,59.29
2022-08-07T00:43:59.553Z,59.54
2022-08-07T00:46:16.018Z,60.38
2022-08-07T00:48:42.226Z,60.26
2022-08-07T00:51:09.675Z,60.41
2022-08-07T00:53:39.046Z,60.46
2022-08-07T00:56:17.719Z,60.47
2022-08-07T00:58:46.792Z,61.43
2022-08-07T01:01:14.709Z,61.60
2022-08-07T01:03:55.708Z,61.62
2022-08-07T01:06:29.603Z,61.52
2022-08-07T01:08:58.561Z,61.71
2022-08-07T01:12:23.618Z,61.72
2022-08-07T01:14:11.946Z,62.78
2022-08-07T01:16:43.105Z,62.48
2022-08-07T01:19:14.787Z,62.13
2022-08-07T01:21:47.582Z,63.22
2022-08-07T01:24:13.745Z,63.06
2022-08-07T01:26:40.032Z,63.33
2022-08-07T01:29:06.793Z,63.70
2022-08-07T01:31:41.511Z,64.19
2022-08-07T01:34:08.792Z,64.29
2022-08-07T01:36:36.372Z,64.31
2022-08-07T01:39:09.811Z,64.20
2022-08-07T01:41:38.492Z,63.31
2022-08-07T01:44:05.593Z,63.29
2022-08-07T01:46:32.070Z,63.63
2022-08-07T01:48:59.844Z,63.92
2022-08-07T01:52:01.071Z,64.84
2022-08-07T01:54:33.052Z,64.46
2022-08-07T01:58:00.981Z,65.61
2022-08-07T02:00:13.211Z,64.78
2022-08-07T02:03:18.061Z,65.02
2022-08-07T02:05:48.267Z,65.64
2022-08-07T02:08:24.655Z,65.32
2022-08-07T02:10:55.330Z,66.35
2022-08-07T02:14:00.723Z,65.70
2022-08-07T02:16:16.388Z,67.88
2022-08-07T02:18:47.500Z,68.00
2022-08-07T02:21:16.320Z,67.36
2022-08-07T02:23:44.703Z,67.60
2022-08-07T02:26:33.082Z,69.05
2022-08-07T02:29:00.070Z,68.60
2022-08-07T02:31:28.637Z,68.17
2022-08-07T02:34:03.524Z,68.06
2022-08-07T02:36:32.784Z,66.87
2022-08-07T02:39:02.342Z,67.98
2022-08-07T02:41:50.575Z,69.89
2022-08-07T02:44:17.843Z,68.42
2022-08-07T02:46:52.772Z,68.67
2022-08-07T02:49:55.736Z,68.63
2022-08-07T02:52:09.553Z,69.24
2022-08-07T02:54:40.973Z,68.62
2022-08-07T02:57:12.884Z,67.26
2022-08-07T02:59:55.275Z,68.69
2022-08-07T03:02:31.289Z,68.08
2022-08-07T03:05:00.075Z,68.94
2022-08-07T03:07:43.078Z,67.79
2022-08-07T03:10:19.193Z,66.95
2022-08-07T03:12:50.680Z,68.33
2022-08-07T03:15:30.256Z,68.94
2022-08-07T03:18:05.279Z,68.75
2022-08-07T03:20:31.889Z,68.78
2022-08-07T03:22:58.845Z,69.00
2022-08-07T03:25:32.547Z,69.26
2022-08-07T03:28:37.831Z,69.37
2022-08-07T03:31:17.337Z,69.46
2022-08-07T03:33:43.682Z,69.57
2022-08-07T03:36:14.179Z,69.30
2022-08-07T03:38:43.109Z,68.79
2022-08-07T03:41:12.239Z,68.78
2022-08-07T03:43:44.079Z,68.04
2022-08-07T03:46:25.432Z,68.27
2022-08-07T03:49:02.626Z,69.00
2022-08-07T03:51:47.244Z,68.92
2022-08-07T03:54:35.335Z,68.60
2022-08-07T03:57:07.391Z,68.28
2022-08-07T03:59:33.909Z,69.20
2022-08-07T04:02:00.846Z,69.26
2022-08-07T04:04:27.600Z,68.36
2022-08-07T04:07:00.094Z,69.49
2022-08-07T04:09:29.490Z,69.45
2022-08-07T04:12:25.932Z,68.46
2022-08-07T04:14:56.553Z,69.74
2022-08-07T04:17:22.428Z,69.98
2022-08-07T04:19:52.818Z,69.23
2022-08-07T04:22:27.418Z,69.86
2022-08-07T04:24:55.714Z,68.29
2022-08-07T04:27:36.106Z,68.92
2022-08-07T04:30:21.251Z,67.86
2022-08-07T04:32:58.636Z,66.92
2022-08-07T04:35:25.200Z,68.71
2022-08-07T04:38:03.731Z,69.57
2022-08-07T04:40:34.111Z,69.74
2022-08-07T04:43:01.641Z,68.90
2022-08-07T04:45:57.242Z,67.76
2022-08-07T04:48:39.856Z,68.38
2022-08-07T04:51:16.485Z,67.01
2022-08-07T04:54:06.926Z,70.18
2022-08-07T04:58:12.050Z,69.36
2022-08-07T05:00:09.602Z,68.40
2022-08-07T05:02:29.969Z,66.80
2022-08-07T05:05:11.419Z,66.90
2022-08-07T05:08:04.198Z,66.52
2022-08-07T05:10:48.298Z,66.65
2022-08-07T05:14:53.899Z,67.51
2022-08-07T05:16:09.155Z,70.39
2022-08-07T05:18:48.177Z,70.74
2022-08-07T05:21:18.106Z,70.50
2022-08-07T05:24:09.456Z,71.86
2022-08-07T05:26:37.723Z,71.86
2022-08-07T05:29:07.585Z,70.08
2022-08-07T05:31:38.523Z,68.99
2022-08-07T05:34:11.003Z,67.35
2022-08-07T05:36:41.208Z,66.83
2022-08-07T05:40:05.505Z,65.44
2022-08-07T05:42:01.209Z,65.54
2022-08-07T05:44:32.995Z,65.41
2022-08-07T05:47:01.117Z,63.75
2022-08-07T05:49:40.445Z,63.34
2022-08-07T05:52:07.732Z,63.00
2022-08-07T05:54:53.748Z,61.36
2022-08-07T05:57:26.693Z,60.97
2022-08-07T06:00:00.036Z,61.36
2022-08-07T06:02:31.213Z,62.07
2022-08-07T06:05:19.958Z,62.78
2022-08-07T06:08:14.537Z,60.82
2022-08-07T06:10:38.817Z,61.15
2022-08-07T06:13:05.377Z,61.48
2022-08-07T06:15:42.732Z,61.72
2022-08-07T06:18:11.074Z,61.71
2022-08-07T06:20:51.176Z,60.84
2022-08-07T06:24:37.160Z,60.49
2022-08-07T06:26:13.699Z,61.12
2022-08-07T06:28:56.313Z,59.92
2022-08-07T06:31:24.315Z,59.16
2022-08-07T06:34:05.253Z,59.23
2022-08-07T06:36:35.391Z,59.41
2022-08-07T06:40:16.590Z,59.63
2022-08-07T06:42:03.898Z,58.24
2022-08-07T06:44:36.624Z,59.22
2022-08-07T06:47:10.332Z,58.79
2022-08-07T06:49:51.484Z,58.91
2022-08-07T06:52:31.839Z,57.97
2022-08-07T06:55:53.503Z,58.10
2022-08-07T06:58:16.632Z,57.25
2022-08-07T07:00:47.453Z,59.28
2022-08-07T07:03:26.510Z,58.41
2022-08-07T07:06:11.287Z,58.89
2022-08-07T07:08:39.634Z,57.14
2022-08-07T07:11:14.000Z,55.87
2022-08-07T07:14:01.600Z,55.10
2022-08-07T07:16:34.392Z,55.23
2022-08-07T07:19:55.547Z,55.45
2022-08-07T07:22:05.191Z,55.62
2022-08-07T07:24:43.234Z,54.86
2022-08-07T07:27:35.816Z,53.05
2022-08-07T07:30:32.708Z,54.30
2022-08-07T07:33:06.658Z,53.41
2022-08-07T07:35:51.869Z,52.63
2022-08-07T07:38:25.238Z,52.43
2022-08-07T07:40:58.833Z,52.26
2022-08-07T07:44:14.244Z,52.66
2022-08-07T07:46:38.296Z,53.25
2022-08-07T07:50:29.768Z,52.86
2022-08-07T07:51:58.216Z,52.32
2022-08-07T07:54:26.859Z,52.21
2022-08-07T07:56:55.293Z,52.88
2022-08-07T07:59:52.029Z,52.93
2022-08-07T08:02:33.685Z,53.98
2022-08-07T08:05:02.913Z,53.39
2022-08-07T08:07:35.409Z,53.47
2022-08-07T08:10:09.434Z,52.70
2022-08-07T08:12:59.129Z,52.09
2022-08-07T08:15:57.430Z,51.55
2022-08-07T08:18:19.050Z,51.85
2022-08-07T08:20:47.910Z,51.81
2022-08-07T08:23:35.305Z,49.44
2022-08-07T08:26:22.784Z,47.52
2022-08-07T08:28:52.800Z,47.45
2022-08-07T08:31:58.387Z,47.73
2022-08-07T08:34:29.013Z,46.63
2022-08-07T08:36:59.693Z,46.12
2022-08-07T08:39:39.314Z,44.60
2022-08-07T08:42:25.870Z,43.77
2022-08-07T08:45:04.218Z,43.78
2022-08-07T08:47:52.724Z,41.65
2022-08-07T08:50:34.909Z,42.36
2022-08-07T08:53:25.720Z,43.27
2022-08-07T08:56:22.872Z,42.75
2022-08-07T08:59:06.480Z,41.77
2022-08-07T09:01:59.575Z,41.22
2022-08-07T09:04:43.097Z,41.73
2022-08-07T09:07:46.545Z,41.67
2022-08-07T09:10:28.803Z,42.17
2022-08-07T09:13:14.903Z,42.80
2022-08-07T09:16:25.689Z,41.59
2022-08-07T09:19:07.300Z,42.14
2022-08-07T09:22:23.072Z,42.95
2022-08-07T09:25:00.872Z,41.46
2022-08-07T09:27:59.870Z,41.56
2022-08-07T09:30:32.637Z,41.76
2022-08-07T09:33:52.408Z,40.18
2022-08-07T09:36:36.916Z,39.05
2022-08-07T09:39:52.441Z,39.54
2022-08-07T09:42:05.905Z,40.08
2022-08-07T09:47:24.304Z,42.23
2022-08-07T09:48:30.180Z,41.91
2022-08-07T09:52:09.874Z,40.18
2022-08-07T09:54:36.793Z,38.22
2022-08-07T09:57:29.289Z,37.99
2022-08-07T10:00:07.115Z,38.20
2022-08-07T10:03:08.403Z,37.63
2022-08-07T10:06:17.383Z,38.81
2022-08-07T10:09:02.458Z,38.64
2022-08-07T10:12:01.071Z,38.03
2022-08-07T10:15:15.144Z,38.47
2022-08-07T10:18:12.482Z,37.76
2022-08-07T10:21:14.927Z,36.91
2022-08-07T10:24:18.609Z,37.88
2022-08-07T10:27:17.386Z,36.36
2022-08-07T10:30:04.182Z,35.30
2022-08-07T10:33:00.891Z,36.16
2022-08-07T10:35:56.711Z,36.51
2022-08-07T10:38:41.959Z,35.52
2022-08-07T10:41:47.169Z,35.21
2022-08-07T10:44:28.358Z,35.54
2022-08-07T10:47:27.114Z,34.61
2022-08-07T10:50:15.041Z,35.62
2022-08-07T10:52:51.557Z,34.41
2022-08-07T10:55:56.618Z,34.88
2022-08-07T10:58:59.673Z,33.94
2022-08-07T11:01:51.822Z,34.27
2022-08-07T11:04:40.911Z,34.16
2022-08-07T11:07:58.820Z,33.44
2022-08-07T11:10:27.671Z,32.45
2022-08-07T11:13:16.869Z,32.11
2022-08-07T11:16:07.240Z,31.45
2022-08-07T11:18:43.562Z,30.99
2022-08-07T11:21:42.757Z,31.04
2022-08-07T11:24:21.127Z,31.31
2022-08-07T11:27:01.258Z,30.45
2022-08-07T11:29:48.295Z,31.16
2022-08-07T11:32:49.071Z,31.38
2022-08-07T11:35:25.287Z,30.36
2022-08-07T11:38:12.614Z,30.82
2022-08-07T11:40:55.391Z,30.30
2022-08-07T11:43:54.999Z,30.66
2022-08-07T11:46:36.778Z,30.23
2022-08-07T11:49:50.716Z,29.75
2022-08-07T11:52:37.756Z,29.19
2022-08-07T11:56:15.565Z,30.96
2022-08-07T11:58:33.398Z,30.02
2022-08-07T12:01:53.180Z,29.77
2022-08-07T12:04:47.566Z,29.83
2022-08-07T12:07:38.587Z,29.13
2022-08-07T12:10:14.899Z,29.51
2022-08-07T12:12:47.665Z,29.55
2022-08-07T12:15:57.945Z,28.41
2022-08-07T12:18:45.570Z,27.98
2022-08-07T12:22:37.904Z,27.74
2022-08-07T12:24:37.976Z,28.07
2022-08-07T12:27:14.865Z,27.20
2022-08-07T12:29:56.707Z,28.11
2022-08-07T12:32:49.103Z,27.82
2022-08-07T12:35:19.230Z,27.26
2022-08-07T12:38:11.531Z,27.19
2022-08-07T12:40:47.327Z,26.83
2022-08-07T12:44:02.110Z,27.25
2022-08-07T12:46:26.545Z,27.46
2022-08-07T12:49:39.845Z,26.67
2022-08-07T12:52:18.166Z,27.02
2022-08-07T12:55:40.726Z,26.32
2022-08-07T12:58:11.769Z,26.03
2022-08-07T13:01:13.242Z,26.63
2022-08-07T13:04:02.793Z,26.86
2022-08-07T13:07:00.286Z,25.81
2022-08-07T13:10:37.972Z,25.88
2022-08-07T13:12:49.293Z,26.06
2022-08-07T13:15:51.154Z,25.63
2022-08-07T13:18:38.715Z,27.22
2022-08-07T13:21:12.484Z,26.79
2022-08-07T13:24:00.855Z,25.92
2022-08-07T13:26:41.900Z,26.18
2022-08-07T13:29:17.586Z,25.54
2022-08-07T13:32:23.525Z,25.63
2022-08-07T13:35:15.979Z,25.56
2022-08-07T13:37:58.984Z,25.19
2022-08-07T13:40:42.082Z,26.25
2022-08-07T13:43:15.055Z,26.71
2022-08-07T13:46:10.832Z,26.51
2022-08-07T13:48:34.514Z,26.26
2022-08-07T13:51:27.139Z,25.93
2022-08-07T13:54:00.727Z,27.67
2022-08-07T13:56:36.105Z,27.00
2022-08-07T13:59:23.653Z,26.41
2022-08-07T14:02:04.505Z,26.53
2022-08-07T14:04:36.041Z,26.89
2022-08-07T14:07:09.721Z,27.17
2022-08-07T14:10:00.918Z,26.54
2022-08-07T14:12:28.379Z,26.75
2022-08-07T14:15:09.542Z,27.18
2022-08-07T14:18:23.445Z,26.58
2022-08-07T14:20:40.068Z,25.93
2022-08-07T14:23:58.714Z,26.15
2022-08-07T14:26:23.661Z,26.69
2022-08-07T14:29:08.625Z,26.55
2022-08-07T14:31:56.091Z,26.66
2022-08-07T14:34:29.549Z,26.90
2022-08-07T14:37:01.925Z,27.40
2022-08-07T14:40:15.607Z,27.36
2022-08-07T14:42:24.474Z,27.28
2022-08-07T14:44:59.879Z,27.78
2022-08-07T14:47:47.049Z,28.21
2022-08-07T14:50:18.509Z,27.75
2022-08-07T14:52:50.303Z,27.73
2022-08-07T14:55:18.069Z,28.18
2022-08-07T14:57:57.963Z,28.09
2022-08-07T15:03:21.548Z,28.25
2022-08-07T15:06:09.055Z,27.79
2022-08-07T15:08:49.865Z,28.41
2022-08-07T15:14:16.677Z,28.25
2022-08-07T15:16:54.760Z,27.63
2022-08-07T15:22:22.128Z,27.48
2022-08-07T15:28:32.995Z,27.45
2022-08-07T15:30:34.213Z,27.80
2022-08-07T15:33:05.508Z,28.55
2022-08-07T15:38:58.710Z,28.00
2022-08-07T15:42:46.487Z,27.92
2022-08-07T15:44:20.243Z,27.51
2022-08-07T15:46:54.494Z,27.92
2022-08-07T15:50:04.972Z,28.28
2022-08-07T15:52:21.724Z,28.06
2022-08-07T15:55:02.726Z,27.66
2022-08-07T15:57:39.352Z,28.62
2022-08-07T16:00:31.210Z,28.90
2022-08-07T16:03:03.877Z,29.00
2022-08-07T16:05:31.202Z,28.89
2022-08-07T16:08:30.697Z,28.35
2022-08-07T16:11:03.975Z,28.24
2022-08-07T16:14:05.490Z,28.02
2022-08-07T16:16:47.965Z,28.47
2022-08-07T16:19:42.071Z,28.29
2022-08-07T16:22:33.392Z,28.03
2022-08-07T16:25:23.154Z,28.70
2022-08-07T16:30:07.782Z,28.73
2022-08-07T16:31:50.773Z,28.59
2022-08-07T16:34:26.441Z,28.47
2022-08-07T16:37:02.678Z,28.82
2022-08-07T16:39:59.066Z,27.90
2022-08-07T16:43:09.673Z,28.01
2022-08-07T16:46:40.725Z,27.77
2022-08-07T16:50:27.542Z,27.52
2022-08-07T16:52:52.744Z,27.63
2022-08-07T16:55:47.649Z,27.84
2022-08-07T16:59:02.321Z,27.99
2022-08-07T17:01:34.265Z,28.13
2022-08-07T17:04:30.519Z,27.61
2022-08-07T17:07:08.782Z,27.54
2022-08-07T17:10:06.885Z,28.11
2022-08-07T17:12:44.416Z,27.86
2022-08-07T17:15:20.151Z,28.10
2022-08-07T17:17:47.517Z,27.95
2022-08-07T17:20:30.778Z,28.51
2022-08-07T17:23:16.066Z,29.45
2022-08-07T17:26:23.363Z,29.02
2022-08-07T17:29:06.792Z,29.20
2022-08-07T17:32:03.268Z,29.82
2022-08-07T17:35:33.207Z,29.65
2022-08-07T17:38:05.736Z,29.99
2022-08-07T17:40:50.635Z,30.56
2022-08-07T17:44:01.571Z,29.89
2022-08-07T17:46:41.265Z,30.38
2022-08-07T17:49:22.894Z,29.73
2022-08-07T17:52:01.307Z,29.95
2022-08-07T17:54:54.434Z,30.07
2022-08-07T17:57:59.069Z,30.02
2022-08-07T18:00:34.078Z,29.70
2022-08-07T18:04:03.826Z,30.27
2022-08-07T18:06:38.706Z,30.63
2022-08-07T18:09:06.619Z,30.79
2022-08-07T18:12:27.801Z,30.92
2022-08-07T18:15:08.852Z,31.12
2022-08-07T18:18:45.173Z,31.70
2022-08-07T18:21:38.297Z,32.48
2022-08-07T18:24:33.704Z,32.90
2022-08-07T18:27:21.076Z,32.87
2022-08-07T18:30:30.797Z,33.04
2022-08-07T18:33:25.047Z,33.65
2022-08-07T18:36:13.795Z,33.84
2022-08-07T18:38:57.756Z,34.22
2022-08-07T18:42:06.646Z,34.18
2022-08-07T18:45:44.583Z,34.38
2022-08-07T18:48:02.716Z,35.02
2022-08-07T18:50:47.219Z,35.11
2022-08-07T18:53:39.827Z,35.55
2022-08-07T18:56:33.047Z,35.58
2022-08-07T18:59:46.712Z,35.96
2022-08-07T19:02:39.658Z,36.08
2022-08-07T19:05:22.215Z,36.28
2022-08-07T19:07:58.947Z,36.45
2022-08-07T19:10:49.605Z,36.56
2022-08-07T19:13:44.410Z,36.91
2022-08-07T19:17:08.264Z,36.96
2022-08-07T19:20:00.385Z,37.14
2022-08-07T19:22:39.916Z,37.00
2022-08-07T19:26:21.987Z,37.06
2022-08-07T19:28:57.178Z,37.25
2022-08-07T19:31:37.194Z,37.82
2022-08-07T19:33:52.240Z,37.78
2022-08-07T19:36:28.044Z,37.54
2022-08-07T19:38:58.346Z,37.70
2022-08-07T19:41:44.654Z,38.24
2022-08-07T19:44:21.262Z,38.38
2022-08-07T19:46:55.757Z,38.71
2022-08-07T19:49:57.702Z,38.81
2022-08-07T19:52:18.430Z,39.27
2022-08-07T19:54:56.541Z,39.08
2022-08-07T19:58:00.143Z,38.87
2022-08-07T20:00:29.301Z,39.88
2022-08-07T20:03:01.052Z,39.71
2022-08-07T20:05:31.448Z,39.64
2022-08-07T20:08:22.961Z,39.70
2022-08-07T20:11:01.720Z,40.02
2022-08-07T20:13:41.889Z,40.26
2022-08-07T20:16:15.753Z,40.33
2022-08-07T20:18:59.181Z,40.45
2022-08-07T20:21:25.734Z,40.83
2022-08-07T20:24:00.456Z,40.63
2022-08-07T20:26:38.885Z,40.74
2022-08-07T20:29:47.163Z,40.96
2022-08-07T20:32:02.375Z,41.03
2022-08-07T20:34:49.451Z,41.01
2022-08-07T20:37:21.199Z,41.01
2022-08-07T20:40:02.773Z,41.10
2022-08-07T20:42:32.724Z,41.35
2022-08-07T20:45:00.819Z,41.62
2022-08-07T20:47:55.244Z,41.50
2022-08-07T20:50:20.586Z,41.84
2022-08-07T20:52:51.196Z,42.09
2022-08-07T20:55:23.579Z,42.14
2022-08-07T20:58:02.579Z,42.35
2022-08-07T21:00:43.646Z,42.31
2022-08-07T21:03:13.714Z,42.25
2022-08-07T21:06:22.342Z,42.87
2022-08-07T21:09:02.327Z,43.05
2022-08-07T21:11:46.063Z,43.33
2022-08-07T21:14:34.040Z,43.34
2022-08-07T21:18:00.602Z,43.36
2022-08-07T21:20:04.962Z,43.43
2022-08-07T21:22:38.865Z,44.08
2022-08-07T21:25:14.107Z,44.21
2022-08-07T21:28:10.136Z,44.37
2022-08-07T21:30:48.873Z,44.80
2022-08-07T21:33:41.392Z,44.93
2022-08-07T21:36:31.365Z,44.98
2022-08-07T21:39:45.378Z,45.13
2022-08-07T21:42:42.593Z,45.44
2022-08-07T21:46:09.279Z,45.68
2022-08-07T21:48:56.427Z,45.48
2022-08-07T21:51:51.178Z,45.55
2022-08-07T21:55:00.063Z,45.80
2022-08-07T21:57:52.892Z,46.00
2022-08-07T22:00:24.850Z,46.15
2022-08-07T22:03:08.062Z,46.00
2022-08-07T22:05:54.525Z,46.68
2022-08-07T22:08:25.707Z,47.29
2022-08-07T22:10:58.729Z,47.79
2022-08-07T22:13:51.037Z,48.11
2022-08-07T22:16:42.880Z,47.73
2022-08-07T22:19:17.716Z,48.30
2022-08-07T22:22:27.781Z,48.53
2022-08-07T22:25:02.151Z,48.14
2022-08-07T22:28:29.362Z,48.07
2022-08-07T22:30:26.533Z,48.39
2022-08-07T22:33:03.121Z,48.85
2022-08-07T22:35:40.867Z,49.24
2022-08-07T22:38:24.056Z,49.30
2022-08-07T22:41:07.755Z,48.33
2022-08-07T22:43:50.613Z,48.07
2022-08-07T22:47:03.472Z,48.87
2022-08-07T22:49:56.631Z,49.35
2022-08-07T22:52:47.433Z,49.92
2022-08-07T22:55:30.160Z,49.44
2022-08-07T22:58:33.474Z,49.26
2022-08-07T23:01:50.026Z,49.39
2022-08-07T23:04:31.925Z,49.72
2022-08-07T23:07:41.764Z,49.83
2022-08-07T23:10:37.820Z,49.93
2022-08-07T23:13:48.691Z,50.21
2022-08-07T23:16:54.615Z,49.74
2022-08-07T23:20:08.190Z,50.09
2022-08-07T23:22:49.091Z,50.37
2022-08-07T23:25:31.741Z,50.43
2022-08-07T23:28:20.491Z,51.27
2022-08-07T23:31:11.732Z,51.26
2022-08-07T23:34:35.499Z,51.29
2022-08-07T23:37:19.928Z,50.98
2022-08-07T23:40:04.604Z,50.80
2022-08-07T23:42:53.323Z,50.75
2022-08-07T23:46:03.545Z,50.89
2022-08-07T23:48:58.712Z,51.45
2022-08-07T23:53:00.899Z,51.31
2022-08-07T23:54:35.832Z,51.51
2022-08-07T23:57:27.721Z,51.75
